Time;durP1;ratioP1;P1;durP2;ratioP2;P2;SDS_P1;SDS_P2;PMS_P1;PMS_P2;Temp;Humidity;BMP_temperature;BMP_pressure;BME280_temperature;BME280_humidity;BME280_pressure;Samples;Min_cycle;Max_cycle;Signal;HPM_P1;HPM_P2
2022/07/31 00:01:28;;;;;;;8.32;4.35;;;;;;;18.35;56.71;99202.13;4974882;28;20039;-77
2022/07/31 00:03:54;;;;;;;12.65;4.43;;;;;;;18.35;56.52;99214.81;4974958;28;20078;-78
2022/07/31 00:06:19;;;;;;;8.57;4.70;;;;;;;18.26;56.78;99213.19;4959112;28;20077;-78
2022/07/31 00:08:47;;;;;;;5.03;4.15;;;;;;;18.17;57.24;99220.50;4974754;28;20041;-78
2022/07/31 00:11:13;;;;;;;8.77;4.30;;;;;;;18.13;57.55;99214.59;4991162;28;20047;-79
2022/07/31 00:13:39;;;;;;;6.35;4.95;;;;;;;18.04;57.54;99215.63;4976004;28;20513;-77
2022/07/31 00:16:05;;;;;;;5.68;4.63;;;;;;;17.91;57.73;99218.03;4975012;28;20042;-78
2022/07/31 00:18:33;;;;;;;6.95;4.43;;;;;;;17.81;58.28;99209.25;4974707;28;20058;-78
2022/07/31 00:21:01;;;;;;;7.53;4.80;;;;;;;17.66;59.17;99207.22;4991006;28;20043;-78
2022/07/31 00:23:27;;;;;;;5.57;4.50;;;;;;;17.65;58.92;99210.94;4975714;28;20043;-77
2022/07/31 00:25:53;;;;;;;5.85;4.50;;;;;;;17.45;59.47;99191.56;4976204;28;20113;-76
2022/07/31 00:28:19;;;;;;;6.57;4.57;;;;;;;17.52;59.37;99209.78;4976043;28;20483;-77
2022/07/31 00:30:45;;;;;;;10.05;4.88;;;;;;;17.37;59.62;99202.34;4974344;28;20141;-78
2022/07/31 00:33:11;;;;;;;8.40;5.53;;;;;;;17.42;59.50;99221.63;4973999;28;20051;-79
2022/07/31 00:35:37;;;;;;;18.70;9.05;;;;;;;17.37;59.81;99212.31;4975359;28;20540;-79
2022/07/31 00:38:03;;;;;;;26.92;13.57;;;;;;;17.39;59.86;99215.72;4974736;28;20490;-79
2022/07/31 00:40:29;;;;;;;27.15;12.82;;;;;;;17.22;60.55;99199.47;4990589;28;20133;-78
2022/07/31 00:42:54;;;;;;;12.18;7.03;;;;;;;17.24;60.71;99215.53;4974137;28;20038;-78
2022/07/31 00:45:21;;;;;;;14.98;6.55;;;;;;;17.21;61.16;99208.59;4958237;28;20082;-78
2022/07/31 00:47:47;;;;;;;10.90;6.05;;;;;;;17.15;61.88;99209.28;4990546;28;20051;-77
2022/07/31 00:50:13;;;;;;;13.45;6.93;;;;;;;17.11;61.86;99209.78;4974290;28;20130;-78
2022/07/31 00:52:40;;;;;;;10.80;6.18;;;;;;;17.16;61.14;99210.13;4958382;28;20038;-78
2022/07/31 00:55:07;;;;;;;20.65;6.60;;;;;;;17.14;61.30;99206.75;4974007;28;20565;-79
2022/07/31 00:57:33;;;;;;;14.98;7.00;;;;;;;17.21;61.34;99208.59;4958132;28;20046;-78
2022/07/31 00:59:58;;;;;;;14.77;7.68;;;;;;;17.21;61.39;99208.59;4990194;28;20105;-78
2022/07/31 01:02:24;;;;;;;15.75;8.55;;;;;;;17.29;61.29;99220.44;4957691;28;20462;-79
2022/07/31 01:04:50;;;;;;;16.55;7.43;;;;;;;17.35;61.19;99220.59;4973696;28;20495;-77
2022/07/31 01:07:16;;;;;;;19.02;8.25;;;;;;;17.40;61.00;99217.38;4975081;28;20078;-79
2022/07/31 01:09:44;;;;;;;16.52;8.13;;;;;;;17.45;61.35;99209.59;4957581;28;20421;-78
2022/07/31 01:12:19;;;;;;;23.67;9.52;;;;;;;17.48;61.18;99203.88;4973687;28;20038;-77
2022/07/31 01:14:52;;;;;;;22.35;11.50;;;;;;;17.52;61.39;99215.19;4990191;28;20051;-77
2022/07/31 01:17:20;;;;;;;17.55;9.82;;;;;;;17.51;61.50;99203.53;4973498;28;20473;-78
2022/07/31 01:19:49;;;;;;;31.00;12.60;;;;;;;17.47;61.64;99213.00;4973685;28;20487;-78
2022/07/31 01:23:06;;;;;;;21.40;14.85;;;;;;;17.37;61.17;99212.31;4973493;28;20053;-77
2022/07/31 01:25:42;;;;;;;34.15;22.35;;;;;;;17.32;61.52;99215.53;4944739;28;20053;-77
2022/07/31 01:29:00;;;;;;;23.20;17.42;;;;;;;17.17;61.62;99211.81;4957583;28;20498;-77
2022/07/31 01:31:33;;;;;;;29.00;18.25;;;;;;;16.86;62.24;99209.75;4957382;28;20185;-77
2022/07/31 01:34:50;;;;;;;29.25;23.95;;;;;;;16.84;62.13;99211.78;4957577;28;20057;-77
2022/07/31 01:37:26;;;;;;;10.77;9.30;;;;;;;16.70;62.42;99210.56;4914952;29;20051;-77
2022/07/31 01:40:09;;;;;;;12.65;7.30;;;;;;;16.78;62.56;99208.91;4915215;29;20533;-78
2022/07/31 01:42:38;;;;;;;8.48;6.45;;;;;;;16.84;61.81;99200.97;4953762;28;20146;-77
2022/07/31 01:45:09;;;;;;;12.70;6.38;;;;;;;16.98;61.56;99208.41;4972537;28;20500;-77
2022/07/31 01:47:38;;;;;;;19.75;7.13;;;;;;;17.07;61.15;99206.56;4989467;28;20046;-77
2022/07/31 01:50:06;;;;;;;7.03;5.57;;;;;;;17.20;61.08;99208.78;4957059;28;20039;-79
2022/07/31 01:52:33;;;;;;;6.63;5.35;;;;;;;17.15;60.99;99192.22;4973077;28;20086;-80
2022/07/31 01:55:01;;;;;;;8.63;6.15;;;;;;;17.29;60.45;99198.81;4972971;28;20043;-77
2022/07/31 01:57:29;;;;;;;6.95;5.57;;;;;;;17.39;60.21;99199.50;4988923;28;20093;-78
2022/07/31 02:00:03;;;;;;;10.38;5.43;;;;;;;17.47;60.54;99196.78;4988955;28;20065;-79
2022/07/31 02:02:47;;;;;;;9.00;5.05;;;;;;;17.50;60.27;99179.38;4989164;28;20046;-77
2022/07/31 02:05:15;;;;;;;7.05;4.93;;;;;;;17.63;60.11;99207.56;4956577;28;20042;-77
2022/07/31 02:07:44;;;;;;;13.07;5.47;;;;;;;17.71;59.80;99206.69;4972670;28;20140;-77
2022/07/31 02:10:13;;;;;;;6.57;5.13;;;;;;;17.78;59.53;99205.03;4972844;28;20042;-77
2022/07/31 02:12:40;;;;;;;9.55;4.93;;;;;;;17.76;59.48;99206.25;4957209;28;20532;-78
2022/07/31 02:15:10;;;;;;;10.40;5.38;;;;;;;17.70;59.74;99197.75;4972814;28;20042;-77
2022/07/31 02:17:40;;;;;;;6.30;4.95;;;;;;;17.78;59.72;99209.59;4941484;28;20138;-77
2022/07/31 02:20:22;;;;;;;11.50;4.78;;;;;;;17.76;59.82;99200.84;4972703;28;20561;-77
2022/07/31 02:22:54;;;;;;;8.27;4.80;;;;;;;17.68;59.92;99199.81;4972551;28;20572;-77
2022/07/31 02:25:20;;;;;;;8.50;4.72;;;;;;;17.78;60.01;99199.63;4974028;28;20078;-78
2022/07/31 02:27:49;;;;;;;8.27;4.90;;;;;;;17.81;59.44;99195.75;4988990;28;20042;-78
2022/07/31 02:30:16;;;;;;;9.35;4.95;;;;;;;17.95;59.14;99189.63;4973719;28;20500;-78
2022/07/31 02:32:45;;;;;;;12.48;4.72;;;;;;;18.13;59.09;99201.06;4988971;28;20050;-78
2022/07/31 02:35:14;;;;;;;6.07;4.70;;;;;;;18.18;58.72;99198.66;4988889;28;20074;-78
2022/07/31 02:37:41;;;;;;;7.33;4.43;;;;;;;18.11;59.10;99194.97;4972650;28;20038;-79
2022/07/31 02:40:10;;;;;;;7.50;4.50;;;;;;;18.27;58.76;99198.63;4972636;28;20807;-79
2022/07/31 02:42:37;;;;;;;12.38;4.70;;;;;;;18.36;58.61;99193.00;4940510;28;20141;-78
2022/07/31 02:45:05;;;;;;;7.60;4.75;;;;;;;18.49;58.41;99208.66;4955789;28;20047;-79
2022/07/31 02:47:32;;;;;;;9.30;4.75;;;;;;;18.36;58.32;99171.38;4972342;28;20066;-79
2022/07/31 02:50:01;;;;;;;13.18;5.15;;;;;;;18.60;58.20;99193.91;4972719;28;20049;-78
2022/07/31 02:52:28;;;;;;;10.98;4.70;;;;;;;18.62;58.28;99189.16;4988763;28;20093;-77
2022/07/31 02:54:56;;;;;;;5.60;4.35;;;;;;;18.85;58.19;99198.19;4973612;28;20525;-77
2022/07/31 02:57:25;;;;;;;8.88;5.10;;;;;;;18.99;57.71;99193.84;4973974;28;20126;-77
2022/07/31 02:59:51;;;;;;;7.88;4.50;;;;;;;19.13;57.17;99201.19;4976355;28;20524;-78
2022/07/31 03:02:18;;;;;;;9.52;4.57;;;;;;;19.22;56.51;99195.69;4960611;28;20046;-79
2022/07/31 03:04:44;;;;;;;10.95;4.68;;;;;;;19.33;56.35;99206.09;4975923;28;20506;-78
2022/07/31 03:07:10;;;;;;;6.85;4.60;;;;;;;19.32;56.59;99204.44;4959922;28;20054;-81
2022/07/31 03:09:36;;;;;;;7.18;4.38;;;;;;;19.33;56.74;99208.81;4975747;28;20521;-78
2022/07/31 03:12:20;;;;;;;10.02;4.57;;;;;;;19.40;56.51;99204.34;4976044;28;20402;-86
2022/07/31 03:14:47;;;;;;;11.35;4.90;;;;;;;19.50;56.32;99210.38;4975891;28;20493;-79
2022/07/31 03:17:13;;;;;;;8.38;4.80;;;;;;;19.59;56.05;99213.84;4975886;28;20457;-78
2022/07/31 03:19:40;;;;;;;12.48;4.97;;;;;;;19.75;56.04;99211.03;4992291;28;20050;-77
2022/07/31 03:22:06;;;;;;;11.95;5.20;;;;;;;19.98;55.81;99216.38;4975863;28;20058;-92
2022/07/31 03:24:32;;;;;;;8.55;5.13;;;;;;;20.06;55.23;99210.84;4959403;28;20490;-79
2022/07/31 03:26:59;;;;;;;11.10;5.10;;;;;;;20.24;55.05;99215.91;4975697;28;20043;-76
2022/07/31 03:29:25;;;;;;;12.25;5.75;;;;;;;20.36;54.97;99218.97;4991721;28;20046;-79
2022/07/31 03:31:51;;;;;;;12.25;5.10;;;;;;;20.42;54.91;99207.34;4975436;28;20105;-77
2022/07/31 03:34:16;;;;;;;10.13;5.35;;;;;;;20.61;54.36;99209.53;4959396;28;20093;-77
2022/07/31 03:36:43;;;;;;;5.63;4.93;;;;;;;20.57;54.16;99208.22;4959168;28;20494;-78
2022/07/31 03:39:09;;;;;;;15.00;5.28;;;;;;;20.66;54.10;99221.69;4959195;28;20503;-77
2022/07/31 03:41:45;;;;;;;12.68;5.30;;;;;;;20.74;54.28;99214.25;4991959;28;20105;-76
2022/07/31 03:44:11;;;;;;;10.60;5.13;;;;;;;20.77;53.87;99204.91;4975468;28;20055;-77
2022/07/31 03:46:38;;;;;;;9.25;4.93;;;;;;;20.78;53.99;99209.28;4991095;28;20286;-78
2022/07/31 03:49:06;;;;;;;15.07;5.00;;;;;;;20.78;53.73;99206.56;4991449;28;20089;-80
2022/07/31 03:51:33;;;;;;;9.00;5.03;;;;;;;20.89;53.75;99203.34;4975028;28;20050;-83
2022/07/31 03:53:59;;;;;;;8.65;5.10;;;;;;;21.08;53.72;99201.88;4991130;28;20102;-79
2022/07/31 03:56:53;;;;;;;8.63;4.65;;;;;;;21.20;52.83;99203.03;4960072;28;20093;-80
2022/07/31 03:59:22;;;;;;;10.95;4.85;;;;;;;21.30;53.45;99205.44;4975420;28;20046;-78
2022/07/31 04:01:48;;;;;;;16.90;4.97;;;;;;;21.40;52.73;99200.53;4991240;28;20054;-79
2022/07/31 04:04:19;;;;;;;12.43;4.53;;;;;;;21.53;52.13;99195.19;4975239;28;20125;-80
2022/07/31 04:06:59;;;;;;;7.20;4.90;;;;;;;21.73;51.81;99208.09;4991619;28;20052;-80
2022/07/31 04:09:26;;;;;;;13.55;4.88;;;;;;;21.86;51.72;99205.50;4974090;28;20137;-82
2022/07/31 04:11:51;;;;;;;9.85;5.43;;;;;;;21.89;51.71;99187.91;4958962;28;20134;-81
2022/07/31 04:14:17;;;;;;;8.85;4.97;;;;;;;21.97;51.73;99204.09;4990972;28;20101;-90
2022/07/31 04:16:44;;;;;;;11.75;5.40;;;;;;;21.95;51.94;99204.28;4974576;28;20070;-80
2022/07/31 04:19:10;;;;;;;10.93;5.00;;;;;;;22.10;51.38;99203.34;4991104;28;20080;-78
2022/07/31 04:21:35;;;;;;;10.32;5.25;;;;;;;22.26;51.25;99205.75;4974849;28;20039;-78
2022/07/31 04:24:01;;;;;;;10.02;5.00;;;;;;;22.40;50.74;99201.22;4990613;28;20051;-79
2022/07/31 04:26:57;;;;;;;14.25;4.80;;;;;;;22.28;51.09;99198.25;4956654;28;20145;-88
2022/07/31 04:29:30;;;;;;;13.10;5.22;;;;;;;22.19;51.21;99200.28;4975041;28;20486;-82
2022/07/31 04:31:56;;;;;;;8.48;4.93;;;;;;;22.12;51.45;99193.09;4974740;28;20065;-79
2022/07/31 04:34:28;;;;;;;12.30;4.78;;;;;;;22.17;51.32;99201.53;4974761;28;20406;-84
2022/07/31 04:36:54;;;;;;;7.93;4.65;;;;;;;22.22;51.12;99190.88;4958130;28;20102;-83
2022/07/31 04:39:20;;;;;;;14.63;5.15;;;;;;;22.43;50.64;99189.94;4990546;28;20039;-83
2022/07/31 04:41:45;;;;;;;11.43;5.63;;;;;;;22.66;50.02;99192.31;4990486;28;20054;-79
2022/07/31 04:44:11;;;;;;;8.93;5.45;;;;;;;22.84;50.05;99186.31;4974212;28;20533;-83
2022/07/31 04:47:02;;;;;;;11.52;5.22;;;;;;;23.01;49.11;99191.16;4973973;28;20062;-89
2022/07/31 04:49:31;;;;;;;12.57;5.10;;;;;;;23.11;48.93;99181.75;4974510;28;20046;-78
2022/07/31 04:51:58;;;;;;;15.60;4.93;;;;;;;23.26;48.82;99191.44;4990073;28;20077;-78
2022/07/31 04:54:24;;;;;;;8.82;4.82;;;;;;;23.36;48.37;99188.31;4957971;28;20410;-86
2022/07/31 04:56:50;;;;;;;10.63;4.78;;;;;;;23.33;48.51;99191.44;4973598;28;20054;-78
2022/07/31 04:59:19;;;;;;;7.20;4.45;;;;;;;23.37;48.09;99187.25;4958307;28;20441;-85
2022/07/31 05:01:47;;;;;;;8.77;4.55;;;;;;;23.36;47.91;99180.13;4970427;28;20082;-78
2022/07/31 05:04:17;;;;;;;8.63;4.70;;;;;;;23.49;48.08;99185.56;4954952;28;20387;-79
2022/07/31 05:06:48;;;;;;;9.48;4.82;;;;;;;23.61;47.40;99179.47;4957138;28;20062;-80
2022/07/31 05:09:17;;;;;;;11.18;4.60;;;;;;;23.77;47.54;99170.91;4941357;28;20046;-77
2022/07/31 05:11:43;;;;;;;7.72;4.57;;;;;;;23.81;47.48;99183.06;4973063;28;20069;-78
2022/07/31 05:14:11;;;;;;;5.53;4.10;;;;;;;23.34;47.91;99189.53;4973090;28;20051;-79
2022/07/31 05:16:37;;;;;;;9.85;5.30;;;;;;;23.58;47.98;99188.91;4957084;28;20038;-85
2022/07/31 05:19:05;;;;;;;9.40;4.50;;;;;;;23.70;47.76;99180.97;4956515;28;20046;-80
2022/07/31 05:21:46;;;;;;;8.38;4.85;;;;;;;23.65;47.79;99175.25;4973098;28;20039;-80
2022/07/31 05:24:32;;;;;;;12.63;4.97;;;;;;;23.44;48.21;99190.81;4973670;28;20051;-80
2022/07/31 05:27:04;;;;;;;14.13;4.78;;;;;;;23.47;48.01;99187.66;4957062;28;20081;-78
2022/07/31 05:29:31;;;;;;;7.43;4.88;;;;;;;23.59;47.92;99189.78;4972561;28;20418;-77
2022/07/31 05:31:58;;;;;;;11.60;5.50;;;;;;;23.73;47.46;99188.72;4952650;29;20051;-77
2022/07/31 05:34:25;;;;;;;10.80;4.78;;;;;;;23.98;47.24;99188.91;4987546;28;20042;-80
2022/07/31 05:36:51;;;;;;;13.90;4.57;;;;;;;24.22;47.19;99182.75;4989054;28;20113;-77
2022/07/31 05:39:16;;;;;;;10.55;5.03;;;;;;;24.42;46.41;99190.91;4972898;28;20054;-78
2022/07/31 05:42:00;;;;;;;13.35;4.63;;;;;;;24.51;45.97;99187.91;4972459;28;20038;-80
2022/07/31 05:44:35;;;;;;;11.25;5.15;;;;;;;24.62;45.91;99179.88;4958032;28;20189;-77
2022/07/31 05:47:00;;;;;;;16.98;4.93;;;;;;;24.63;45.51;99180.72;4956302;28;20047;-77
2022/07/31 05:49:27;;;;;;;10.38;4.70;;;;;;;24.81;45.15;99183.56;4987968;28;20047;-77
2022/07/31 05:51:55;;;;;;;9.50;4.13;;;;;;;24.96;45.45;99170.44;4972619;28;20125;-77
2022/07/31 05:54:21;;;;;;;11.73;4.50;;;;;;;24.94;45.04;99178.03;4940477;28;20138;-76
2022/07/31 05:57:06;;;;;;;7.97;4.38;;;;;;;25.17;44.74;99176.66;4972331;28;20051;-78
2022/07/31 05:59:39;;;;;;;10.80;4.32;;;;;;;25.34;44.89;99169.56;4956266;28;20038;-78
2022/07/31 06:02:05;;;;;;;10.60;4.60;;;;;;;25.55;44.71;99168.34;4971968;28;20050;-78
2022/07/31 06:04:41;;;;;;;7.32;4.60;;;;;;;25.83;44.02;99167.06;4955329;28;20085;-79
2022/07/31 06:07:07;;;;;;;12.98;4.57;;;;;;;26.03;43.77;99158.66;4937122;29;20506;-77
2022/07/31 06:09:33;;;;;;;9.52;4.38;;;;;;;26.20;43.36;99156.97;4969130;28;20050;-80
2022/07/31 06:11:59;;;;;;;9.60;4.50;;;;;;;26.28;43.04;99161.28;4969357;28;20043;-78
2022/07/31 06:14:25;;;;;;;8.02;4.10;;;;;;;26.34;42.36;99149.41;4953016;29;20047;-77
2022/07/31 06:17:14;;;;;;;8.75;3.83;;;;;;;26.27;42.47;99138.53;4969002;28;20035;-78
2022/07/31 06:19:40;;;;;;;12.48;4.50;;;;;;;26.35;42.43;99145.59;4952462;28;20070;-82
2022/07/31 06:22:06;;;;;;;10.18;4.85;;;;;;;26.47;42.57;99149.28;4953270;29;20508;-78
2022/07/31 06:24:32;;;;;;;15.50;4.28;;;;;;;26.66;42.63;99152.81;4968916;28;20050;-85
2022/07/31 06:26:59;;;;;;;10.07;4.28;;;;;;;26.53;41.35;99150.28;4969233;28;20411;-79
2022/07/31 06:29:27;;;;;;;7.63;3.80;;;;;;;25.97;42.59;99165.03;4969098;28;20047;-79
2022/07/31 06:31:53;;;;;;;13.90;4.45;;;;;;;25.89;42.95;99157.94;4954669;28;20084;-80
2022/07/31 06:34:19;;;;;;;10.93;4.57;;;;;;;26.10;43.20;99153.91;4972313;28;20130;-82
2022/07/31 06:36:47;;;;;;;15.98;4.70;;;;;;;26.48;42.45;99141.88;4973509;28;20159;-82
2022/07/31 06:39:15;;;;;;;4.43;3.87;;;;;;;26.84;41.67;99144.53;4956938;29;20039;-81
2022/07/31 06:41:47;;;;;;;10.95;4.07;;;;;;;27.05;41.17;99145.09;4972789;28;20821;-82
2022/07/31 06:44:30;;;;;;;14.90;4.03;;;;;;;27.34;39.97;99146.97;4958333;28;20447;-80
2022/07/31 06:47:15;;;;;;;12.52;3.88;;;;;;;27.10;39.23;99147.97;4956508;29;20130;-80
2022/07/31 06:49:59;;;;;;;5.80;3.80;;;;;;;26.90;40.00;99141.97;4957968;29;20097;-79
2022/07/31 06:52:28;;;;;;;7.53;3.90;;;;;;;27.22;39.50;99135.13;4941373;29;20047;-79
2022/07/31 06:54:55;;;;;;;9.13;4.63;;;;;;;27.17;39.54;99137.75;4956585;29;20562;-80
2022/07/31 06:57:20;;;;;;;12.45;3.70;;;;;;;27.36;39.78;99130.25;4925018;29;20126;-81
2022/07/31 06:59:47;;;;;;;9.07;3.80;;;;;;;27.72;39.40;99140.19;4956675;29;20146;-80
2022/07/31 07:02:13;;;;;;;11.55;3.83;;;;;;;27.90;39.06;99124.69;4972878;28;20114;-80
2022/07/31 07:04:39;;;;;;;14.60;3.28;;;;;;;28.19;37.65;99134.66;4972740;28;20054;-82
2022/07/31 07:07:05;;;;;;;12.10;3.72;;;;;;;28.42;36.71;99132.97;4973456;28;20098;-83
2022/07/31 07:09:31;;;;;;;8.48;3.70;;;;;;;28.62;36.00;99129.78;4964870;28;20216;-81
2022/07/31 07:11:57;;;;;;;4.55;3.08;;;;;;;28.71;35.06;99126.38;4976199;28;20074;-81
2022/07/31 07:14:24;;;;;;;9.07;3.33;;;;;;;28.72;34.97;99133.56;4959650;28;20391;-81
2022/07/31 07:16:50;;;;;;;13.20;3.38;;;;;;;28.44;34.58;99130.81;4959675;28;20101;-81
2022/07/31 07:19:16;;;;;;;17.27;3.83;;;;;;;28.29;34.30;99129.38;4975705;28;20046;-81
2022/07/31 07:21:43;;;;;;;4.63;3.13;;;;;;;27.99;33.98;99123.25;4991684;28;20050;-81
2022/07/31 07:24:09;;;;;;;3.85;2.80;;;;;;;28.11;33.40;99132.28;4974400;28;20050;-81
2022/07/31 07:26:50;;;;;;;6.45;2.55;;;;;;;28.47;32.70;99119.31;4969742;28;20090;-82
2022/07/31 07:29:17;;;;;;;8.35;3.03;;;;;;;28.78;32.90;99115.25;4975546;28;20042;-81
2022/07/31 07:31:43;;;;;;;9.13;3.42;;;;;;;29.04;32.91;99125.66;4974967;28;20398;-81
2022/07/31 07:34:10;;;;;;;7.82;3.45;;;;;;;29.37;32.11;99131.41;4975623;28;20101;-81
2022/07/31 07:36:36;;;;;;;10.27;3.67;;;;;;;29.62;31.75;99115.31;4976554;28;20545;-80
2022/07/31 07:39:08;;;;;;;9.23;4.28;;;;;;;29.43;31.98;99111.97;4960242;28;20085;-81
2022/07/31 07:41:34;;;;;;;10.13;4.03;;;;;;;29.72;32.38;99104.47;4959425;28;20045;-81
2022/07/31 07:44:00;;;;;;;27.80;7.82;;;;;;;29.87;32.43;99112.13;4974235;28;20113;-81
2022/07/31 07:46:28;;;;;;;23.75;7.78;;;;;;;30.14;31.97;99106.69;4974734;28;20043;-81
2022/07/31 07:49:00;;;;;;;26.23;7.68;;;;;;;30.17;31.96;99097.94;4959033;28;20046;-81
2022/07/31 07:51:36;;;;;;;15.57;7.50;;;;;;;30.44;31.40;99095.22;4975849;28;20085;-80
2022/07/31 07:54:20;;;;;;;23.20;9.00;;;;;;;29.92;31.41;99103.91;4976543;28;20054;-81
2022/07/31 07:56:46;;;;;;;25.45;9.73;;;;;;;29.58;32.31;99108.66;4991185;28;20461;-81
2022/07/31 07:59:21;;;;;;;23.02;10.27;;;;;;;29.17;32.72;99102.47;4974782;28;20077;-81
2022/07/31 08:02:07;;;;;;;11.80;6.20;;;;;;;29.12;32.57;99105.16;4968783;28;20066;-81
2022/07/31 08:04:33;;;;;;;13.52;6.80;;;;;;;29.19;32.39;99094.81;4975227;28;20055;-81
2022/07/31 08:06:59;;;;;;;12.88;6.63;;;;;;;29.38;32.15;99091.81;4975118;28;20402;-82
2022/07/31 08:09:30;;;;;;;19.67;6.68;;;;;;;29.31;31.59;99096.63;4958686;28;20050;-80
2022/07/31 08:12:26;;;;;;;21.50;7.13;;;;;;;29.20;31.46;99090.97;4974435;28;20138;-82
2022/07/31 08:15:04;;;;;;;26.67;7.93;;;;;;;29.07;32.27;99084.94;4976018;28;20054;-80
2022/07/31 08:17:50;;;;;;;29.65;9.98;;;;;;;29.27;31.92;99079.78;4974766;28;20487;-81
2022/07/31 08:20:16;;;;;;;33.50;8.75;;;;;;;29.55;31.82;99076.06;4942539;28;20494;-81
2022/07/31 08:22:42;;;;;;;27.83;9.13;;;;;;;29.96;31.40;99083.00;4942312;28;20080;-81
2022/07/31 08:25:08;;;;;;;17.58;9.25;;;;;;;30.24;31.01;99087.56;4974712;28;20097;-81
2022/07/31 08:27:34;;;;;;;19.90;9.30;;;;;;;30.27;30.84;99071.56;4958119;28;20073;-83
2022/07/31 08:30:01;;;;;;;18.65;9.40;;;;;;;30.08;31.04;99085.66;4974745;28;20050;-82
2022/07/31 08:32:31;;;;;;;28.55;8.73;;;;;;;30.04;31.23;99078.97;4974313;28;20136;-81
2022/07/31 08:35:19;;;;;;;28.00;8.38;;;;;;;30.04;31.42;99070.72;4961117;28;20051;-81
2022/07/31 08:37:46;;;;;;;17.45;8.25;;;;;;;30.35;30.36;99068.34;4958088;28;20043;-82
2022/07/31 08:40:11;;;;;;;20.23;8.38;;;;;;;29.38;31.40;99067.03;4990260;28;20510;-81
2022/07/31 08:42:37;;;;;;;24.88;8.65;;;;;;;29.12;31.37;99072.13;4973156;28;20049;-80
2022/07/31 08:45:08;;;;;;;21.63;7.65;;;;;;;29.22;31.08;99065.94;4974195;28;20548;-81
2022/07/31 08:47:40;;;;;;;14.20;7.15;;;;;;;29.84;30.40;99067.69;4958228;28;20039;-80
2022/07/31 08:50:14;;;;;;;21.98;7.82;;;;;;;30.18;29.61;99058.25;4974265;28;20520;-81
2022/07/31 08:52:44;;;;;;;20.42;7.72;;;;;;;30.29;29.31;99048.16;4990045;28;20097;-80
2022/07/31 08:55:36;;;;;;;19.20;6.90;;;;;;;30.44;29.30;99050.25;4972595;28;20081;-82
2022/07/31 08:58:02;;;;;;;19.33;6.65;;;;;;;31.00;29.20;99050.00;4990290;28;20047;-80
2022/07/31 09:00:28;;;;;;;19.13;6.60;;;;;;;31.53;28.26;99050.97;4957754;28;20488;-82
2022/07/31 09:02:54;;;;;;;10.27;5.53;;;;;;;31.76;27.33;99049.72;4973791;28;20047;-81
2022/07/31 09:05:41;;;;;;;15.50;5.88;;;;;;;31.79;27.15;99051.94;4973677;28;20054;-81
2022/07/31 09:08:08;;;;;;;13.48;5.57;;;;;;;31.75;26.12;99042.53;4973745;28;20050;-82
2022/07/31 09:10:34;;;;;;;11.88;5.70;;;;;;;31.09;27.12;99046.47;4989705;28;20053;-82
2022/07/31 09:13:15;;;;;;;12.43;5.28;;;;;;;31.41;27.29;99024.38;4973568;28;20130;-81
2022/07/31 09:15:41;;;;;;;11.52;5.20;;;;;;;31.88;26.71;99031.00;4973788;28;20038;-81
2022/07/31 09:18:18;;;;;;;14.70;4.93;;;;;;;32.42;26.11;99032.56;4973415;28;20038;-82
2022/07/31 09:21:12;;;;;;;13.85;4.93;;;;;;;32.72;25.76;99034.56;4926012;28;20046;-82
2022/07/31 09:23:48;;;;;;;14.70;5.30;;;;;;;32.24;25.73;99028.38;4969854;28;20050;-88
2022/07/31 09:26:15;;;;;;;15.35;5.10;;;;;;;32.46;25.68;99031.78;4989572;28;20093;-81
2022/07/31 09:28:46;;;;;;;16.40;5.20;;;;;;;32.63;26.00;99026.81;4973345;28;20050;-81
2022/07/31 09:31:15;;;;;;;14.27;5.40;;;;;;;32.52;25.06;99019.59;4973403;28;20081;-91
2022/07/31 09:33:58;;;;;;;16.33;5.30;;;;;;;32.53;25.40;99021.25;4957742;28;20050;-86
2022/07/31 09:36:52;;;;;;;11.38;4.65;;;;;;;32.74;25.05;99030.41;4974332;28;20047;-86
2022/07/31 09:39:38;;;;;;;11.73;4.60;;;;;;;33.07;24.66;99019.94;4973249;28;20502;-79
2022/07/31 09:42:47;;;;;;;12.07;4.50;;;;;;;33.37;24.33;99013.53;4938293;28;20126;-86
2022/07/31 09:45:23;;;;;;;15.35;4.93;;;;;;;33.21;24.40;99012.72;4973215;28;20042;-85
2022/07/31 09:48:11;;;;;;;14.20;4.60;;;;;;;33.38;24.63;99012.41;4972893;28;20049;-85
2022/07/31 09:50:39;;;;;;;7.65;4.70;;;;;;;33.87;24.18;99011.72;4973698;28;20047;-85
2022/07/31 09:53:05;;;;;;;13.35;4.70;;;;;;;34.24;23.79;99005.75;4973047;28;20090;-85
2022/07/31 09:55:32;;;;;;;13.88;5.07;;;;;;;34.60;23.31;99005.53;4973179;28;20054;-84
2022/07/31 09:57:59;;;;;;;23.15;5.30;;;;;;;34.78;23.34;99004.00;4972223;28;20121;-84
2022/07/31 10:00:36;;;;;;;11.82;4.55;;;;;;;34.89;23.10;99010.31;4956876;28;20042;-83
2022/07/31 10:03:02;;;;;;;18.20;5.30;;;;;;;34.98;22.68;99003.00;4972974;28;20133;-83
2022/07/31 10:05:28;;;;;;;15.07;5.30;;;;;;;35.00;22.61;99001.63;4956787;28;20043;-83
2022/07/31 10:07:59;;;;;;;12.07;5.03;;;;;;;35.15;22.55;98997.88;4971789;28;20038;-83
2022/07/31 10:11:01;;;;;;;15.93;4.90;;;;;;;35.34;22.45;98995.19;4936202;29;20050;-84
2022/07/31 10:13:48;;;;;;;18.10;5.20;;;;;;;35.59;22.06;98993.31;4942633;28;20224;-83
2022/07/31 10:16:14;;;;;;;12.93;4.57;;;;;;;35.95;21.82;98993.66;4989225;28;20061;-83
2022/07/31 10:19:10;;;;;;;12.70;3.97;;;;;;;36.03;21.66;98981.91;4971351;28;20053;-82
2022/07/31 10:21:58;;;;;;;16.00;4.45;;;;;;;36.04;21.21;98991.09;4974203;28;20039;-83
2022/07/31 10:24:32;;;;;;;8.73;3.97;;;;;;;36.06;21.28;98988.81;4972840;28;20039;-83
2022/07/31 10:26:59;;;;;;;8.93;3.97;;;;;;;36.19;20.55;98980.56;4972165;28;20042;-82
2022/07/31 10:29:26;;;;;;;11.20;4.00;;;;;;;36.47;20.27;98994.66;4955428;28;20561;-84
2022/07/31 10:31:52;;;;;;;5.88;3.45;;;;;;;36.75;19.69;98990.06;4972448;28;20141;-82
2022/07/31 10:34:19;;;;;;;6.32;3.50;;;;;;;37.12;19.68;98988.31;4972633;28;20070;-82
2022/07/31 10:37:28;;;;;;;6.68;3.60;;;;;;;37.36;18.88;98977.84;4973753;28;20065;-82
2022/07/31 10:40:41;;;;;;;5.72;3.17;;;;;;;37.00;19.44;98979.63;4972638;28;20043;-82
2022/07/31 10:43:24;;;;;;;8.93;3.47;;;;;;;37.11;19.65;98992.25;4972629;28;20433;-83
2022/07/31 10:46:06;;;;;;;13.48;3.30;;;;;;;37.18;18.80;98978.72;4972348;28;20505;-82
2022/07/31 10:48:52;;;;;;;9.43;3.63;;;;;;;37.21;19.44;98975.34;4943448;28;20045;-83
2022/07/31 10:51:56;;;;;;;6.13;3.22;;;;;;;37.52;18.30;98980.34;4933245;29;20043;-84
2022/07/31 10:55:00;;;;;;;6.90;3.03;;;;;;;37.76;18.27;98978.16;4895252;29;20045;-82
2022/07/31 10:57:52;;;;;;;10.95;3.38;;;;;;;37.98;17.86;98965.47;4909596;29;20519;-83
2022/07/31 11:00:37;;;;;;;8.98;2.90;;;;;;;37.32;18.84;98981.56;4975003;28;20133;-82
2022/07/31 11:03:45;;;;;;;7.25;3.20;;;;;;;37.93;18.53;98973.97;4921763;29;20598;-83
2022/07/31 11:06:17;;;;;;;8.23;3.40;;;;;;;38.64;17.77;98969.53;4932383;29;20155;-83
2022/07/31 11:08:57;;;;;;;5.45;3.00;;;;;;;38.64;17.66;98961.16;4950408;28;20050;-82
2022/07/31 11:12:01;;;;;;;12.20;3.47;;;;;;;38.71;17.72;98969.09;4932838;29;20139;-83
2022/07/31 11:14:45;;;;;;;7.78;3.60;;;;;;;39.05;17.66;98968.53;4917102;29;20411;-82
2022/07/31 11:17:32;;;;;;;4.95;3.20;;;;;;;39.76;17.43;98974.97;4961401;28;20050;-82
2022/07/31 11:20:20;;;;;;;7.28;3.15;;;;;;;39.70;17.09;98967.88;4976052;28;20073;-82
2022/07/31 11:22:59;;;;;;;8.65;3.30;;;;;;;38.79;17.58;98954.34;4959600;28;20059;-82
2022/07/31 11:25:28;;;;;;;4.78;3.00;;;;;;;37.86;18.40;98958.41;4975383;28;20042;-78
2022/07/31 11:27:55;;;;;;;6.63;2.80;;;;;;;38.24;18.10;98958.16;4959422;28;20038;-82
2022/07/31 11:30:21;;;;;;;5.25;3.00;;;;;;;38.85;18.07;98962.28;4991390;28;20086;-83
2022/07/31 11:32:51;;;;;;;7.22;3.10;;;;;;;38.67;17.58;98970.84;4975812;28;20101;-85
2022/07/31 11:35:29;;;;;;;6.10;4.10;;;;;;;38.56;17.98;98971.13;4959593;28;20050;-83
2022/07/31 11:37:56;;;;;;;14.48;3.70;;;;;;;39.09;17.82;98969.53;4958695;28;20050;-81
2022/07/31 11:40:23;;;;;;;12.02;4.25;;;;;;;39.66;17.26;98960.41;4991443;28;20061;-80
2022/07/31 11:42:51;;;;;;;9.13;3.40;;;;;;;39.89;16.76;98972.34;4960504;28;20085;-83
2022/07/31 11:45:17;;;;;;;8.85;3.55;;;;;;;40.25;16.29;98958.94;4976715;28;20066;-84
2022/07/31 11:47:45;;;;;;;10.10;4.15;;;;;;;40.55;16.50;98973.13;4943842;28;20055;-81
2022/07/31 11:50:12;;;;;;;12.88;3.72;;;;;;;40.90;16.39;98964.69;4959034;28;20057;-80
2022/07/31 11:52:42;;;;;;;9.87;3.60;;;;;;;41.22;15.74;98958.50;4975058;28;20042;-80